createdAt,value
2022-12-14T00:00:22.080Z,98036.03
2022-12-14T00:02:50.872Z,98023.00
2022-12-14T00:05:19.960Z,98018.59
2022-12-14T00:07:49.141Z,98026.16
2022-12-14T00:10:17.723Z,98018.16
2022-12-14T00:12:48.906Z,98012.19
2022-12-14T00:15:17.577Z,98010.69
2022-12-14T00:17:46.467Z,98005.53
2022-12-14T00:20:15.461Z,98009.41
2022-12-14T00:22:43.563Z,98008.69
2022-12-14T00:25:12.035Z,98014.94
2022-12-14T00:27:44.641Z,98011.47
2022-12-14T00:30:17.101Z,98017.47
2022-12-14T00:32:45.920Z,98016.63
2022-12-14T00:35:17.073Z,98014.22
2022-12-14T00:37:48.759Z,98008.97
2022-12-14T00:40:18.879Z,98018.44
2022-12-14T00:42:46.987Z,98011.69
2022-12-14T00:45:17.002Z,98016.59
2022-12-14T00:47:45.412Z,98019.91
2022-12-14T00:50:13.595Z,98015.50
2022-12-14T00:52:41.736Z,98017.25
2022-12-14T00:55:12.005Z,98012.94
2022-12-14T00:57:47.266Z,98011.09
2022-12-14T01:00:19.755Z,98010.97
2022-12-14T01:02:49.260Z,98016.13
2022-12-14T01:05:18.978Z,98011.72
2022-12-14T01:07:48.831Z,98011.81
2022-12-14T01:10:17.747Z,98015.97
2022-12-14T01:12:46.050Z,98017.75
2022-12-14T01:15:14.832Z,98027.34
2022-12-14T01:17:44.905Z,98027.19
2022-12-14T01:20:13.371Z,98023.06
2022-12-14T01:22:44.645Z,98018.63
2022-12-14T01:25:13.692Z,98013.56
2022-12-14T01:27:41.894Z,98021.94
2022-12-14T01:30:10.926Z,98011.81
2022-12-14T01:32:40.402Z,98005.81
2022-12-14T01:35:10.614Z,97997.97
2022-12-14T01:37:38.998Z,97999.09
2022-12-14T01:40:08.351Z,97989.56
2022-12-14T01:42:37.644Z,97993.00
2022-12-14T01:45:08.504Z,97991.19
2022-12-14T01:47:42.417Z,97989.47
2022-12-14T01:50:24.428Z,97981.94
2022-12-14T01:52:57.367Z,97979.66
2022-12-14T01:55:30.516Z,97966.06
2022-12-14T01:58:02.539Z,97958.91
2022-12-14T02:00:30.724Z,97940.84
2022-12-14T02:03:03.357Z,97935.78
2022-12-14T02:05:36.562Z,97926.66
2022-12-14T02:08:06.625Z,97923.47
2022-12-14T02:10:36.581Z,97921.94
2022-12-14T02:13:10.219Z,97917.50
2022-12-14T02:15:40.142Z,97917.31
2022-12-14T02:18:12.503Z,97922.28
2022-12-14T02:20:50.933Z,97907.75
2022-12-14T02:23:42.945Z,97910.19
2022-12-14T02:26:59.633Z,97903.84
2022-12-14T02:30:16.451Z,97897.03
2022-12-14T02:33:04.215Z,97877.66
2022-12-14T02:35:43.186Z,97863.03
2022-12-14T02:38:21.467Z,97860.53
2022-12-14T02:41:02.532Z,97854.16
2022-12-14T02:43:38.212Z,97851.69
2022-12-14T02:46:16.883Z,97846.38
2022-12-14T02:48:51.591Z,97840.50
2022-12-14T02:51:26.753Z,97834.34
2022-12-14T02:53:58.476Z,97838.94
2022-12-14T02:56:34.575Z,97833.66
2022-12-14T02:59:04.959Z,97832.88
2022-12-14T03:01:38.247Z,97829.44
2022-12-14T03:04:08.204Z,97825.16
2022-12-14T03:06:37.425Z,97819.13
2022-12-14T03:09:08.651Z,97822.63
2022-12-14T03:11:46.473Z,97813.59
2022-12-14T03:14:20.161Z,97804.25
2022-12-14T03:16:53.630Z,97812.72
2022-12-14T03:19:26.402Z,97798.09
2022-12-14T03:21:59.497Z,97807.84
2022-12-14T03:24:32.128Z,97801.78
2022-12-14T03:27:04.079Z,97801.88
2022-12-14T03:29:40.922Z,97805.22
2022-12-14T03:32:13.471Z,97797.41
2022-12-14T03:34:47.680Z,97796.72
2022-12-14T03:37:21.487Z,97788.31
2022-12-14T03:39:49.976Z,97790.94
2022-12-14T03:42:24.047Z,97783.34
2022-12-14T03:45:01.424Z,97799.97
2022-12-14T03:47:52.658Z,97794.19
2022-12-14T03:50:25.678Z,97797.03
2022-12-14T03:53:01.756Z,97786.97
2022-12-14T03:55:37.312Z,97787.09
2022-12-14T03:58:24.328Z,97789.75
2022-12-14T04:00:58.994Z,97797.34
2022-12-14T04:03:37.258Z,97808.09
2022-12-14T04:06:10.363Z,97802.88
2022-12-14T04:08:45.535Z,97790.72
2022-12-14T04:11:34.230Z,97789.00
2022-12-14T04:14:30.856Z,97781.25
2022-12-14T04:17:19.130Z,97773.16
2022-12-14T04:19:55.751Z,97774.09
2022-12-14T04:22:29.682Z,97766.41
2022-12-14T04:25:20.458Z,97766.28
2022-12-14T04:27:53.040Z,97767.94
2022-12-14T04:30:21.652Z,97755.78
2022-12-14T04:32:55.292Z,97742.31
2022-12-14T04:35:30.502Z,97734.59
2022-12-14T04:38:05.284Z,97740.44
2022-12-14T04:40:38.738Z,97738.31
2022-12-14T04:43:11.149Z,97732.34
2022-12-14T04:45:44.084Z,97742.09
2022-12-14T04:48:21.559Z,97746.91
2022-12-14T04:50:57.756Z,97758.19
2022-12-14T04:53:31.605Z,97760.63
2022-12-14T04:56:07.027Z,97761.56
2022-12-14T04:58:39.495Z,97756.72
2022-12-14T05:01:22.734Z,97754.03
2022-12-14T05:04:00.411Z,97757.44
2022-12-14T05:06:39.319Z,97753.31
2022-12-14T05:09:19.389Z,97748.25
2022-12-14T05:11:54.751Z,97743.72
2022-12-14T05:14:30.627Z,97740.34
2022-12-14T05:17:03.417Z,97745.44
2022-12-14T05:19:35.238Z,97747.06
2022-12-14T05:22:07.536Z,97748.00
2022-12-14T05:24:36.233Z,97743.53
2022-12-14T05:27:04.510Z,97744.47
2022-12-14T05:29:32.666Z,97746.91
2022-12-14T05:32:01.738Z,97744.41
2022-12-14T05:34:30.848Z,97733.13
2022-12-14T05:37:02.209Z,97724.47
2022-12-14T05:39:32.958Z,97723.47
2022-12-14T05:42:01.424Z,97716.81
2022-12-14T05:44:29.910Z,97710.75
2022-12-14T05:46:58.070Z,97701.13
2022-12-14T05:49:26.575Z,97699.31
2022-12-14T05:51:55.637Z,97698.03
2022-12-14T05:54:23.730Z,97699.94
2022-12-14T05:56:53.330Z,97689.69
2022-12-14T05:59:22.131Z,97684.34
2022-12-14T06:01:51.628Z,97680.75
2022-12-14T06:04:21.686Z,97681.88
2022-12-14T06:06:50.463Z,97662.59
2022-12-14T06:09:19.216Z,97674.69
2022-12-14T06:11:50.145Z,97661.13
2022-12-14T06:14:20.293Z,97662.94
2022-12-14T06:16:48.881Z,97659.22
2022-12-14T06:19:18.595Z,97656.28
2022-12-14T06:21:48.539Z,97651.25
2022-12-14T06:24:16.951Z,97653.69
2022-12-14T06:26:46.218Z,97656.13
2022-12-14T06:29:18.736Z,97643.97
2022-12-14T06:31:50.196Z,97644.81
2022-12-14T06:34:22.365Z,97633.81
2022-12-14T06:36:51.923Z,97637.66
2022-12-14T06:39:20.287Z,97636.09
2022-12-14T06:41:51.905Z,97633.56
2022-12-14T06:44:21.555Z,97626.53
2022-12-14T06:46:51.691Z,97623.00
2022-12-14T06:49:23.361Z,97607.22
2022-12-14T06:51:52.155Z,97608.66
2022-12-14T06:54:20.915Z,97603.06
2022-12-14T06:56:49.749Z,97603.59
2022-12-14T06:59:18.658Z,97600.59
2022-12-14T07:01:49.903Z,97611.38
2022-12-14T07:04:22.817Z,97602.03
2022-12-14T07:06:51.220Z,97602.94
2022-12-14T07:09:19.960Z,97593.38
2022-12-14T07:11:51.390Z,97590.00
2022-12-14T07:14:19.854Z,97593.25
2022-12-14T07:16:48.914Z,97595.19
2022-12-14T07:19:20.466Z,97582.91
2022-12-14T07:21:49.065Z,97586.16
2022-12-14T07:24:17.774Z,97587.06
2022-12-14T07:26:46.838Z,97605.13
2022-12-14T07:29:17.036Z,97601.84
2022-12-14T07:31:49.829Z,97600.72
2022-12-14T07:34:20.110Z,97601.63
2022-12-14T07:36:51.168Z,97599.88
2022-12-14T07:39:20.734Z,97600.63
2022-12-14T07:41:50.719Z,97601.53
2022-12-14T07:44:21.390Z,97599.75
2022-12-14T07:46:50.126Z,97609.06
2022-12-14T07:49:20.371Z,97606.34
2022-12-14T07:51:53.172Z,97601.16
2022-12-14T07:54:22.507Z,97598.16
2022-12-14T07:56:51.288Z,97607.50
2022-12-14T07:59:19.483Z,97597.78
2022-12-14T08:01:47.861Z,97606.75
2022-12-14T08:04:18.699Z,97612.84
2022-12-14T08:06:49.451Z,97609.59
2022-12-14T08:09:20.237Z,97604.13
2022-12-14T08:11:50.435Z,97596.28
2022-12-14T08:14:20.859Z,97605.22
2022-12-14T08:16:50.584Z,97604.69
2022-12-14T08:19:21.470Z,97615.44
2022-12-14T08:21:51.164Z,97619.44
2022-12-14T08:24:20.059Z,97619.72
2022-12-14T08:26:49.108Z,97625.66
2022-12-14T08:29:18.436Z,97628.69
2022-12-14T08:31:48.152Z,97631.09
2022-12-14T08:34:22.249Z,97631.34
2022-12-14T08:36:54.048Z,97625.09
2022-12-14T08:39:22.612Z,97633.03
2022-12-14T08:41:57.630Z,97628.81
2022-12-14T08:44:25.685Z,97625.63
2022-12-14T08:46:53.777Z,97635.72
2022-12-14T08:49:26.502Z,97626.97
2022-12-14T08:52:00.433Z,97620.63
2022-12-14T08:54:29.019Z,97617.06
2022-12-14T08:56:57.089Z,97624.81
2022-12-14T08:59:59.552Z,97629.25
2022-12-14T09:02:14.152Z,97624.66
2022-12-14T09:04:42.657Z,97617.97
2022-12-14T09:07:12.858Z,97628.09
2022-12-14T09:09:41.175Z,97621.00
2022-12-14T09:12:09.503Z,97617.41
2022-12-14T09:14:38.438Z,97615.44
2022-12-14T09:17:06.610Z,97616.13
2022-12-14T09:19:37.902Z,97622.94
2022-12-14T09:22:07.296Z,97626.66
2022-12-14T09:24:37.220Z,97623.09
2022-12-14T09:27:06.249Z,97622.88
2022-12-14T09:29:34.818Z,97629.34
2022-12-14T09:32:03.309Z,97626.91
2022-12-14T09:34:35.651Z,97641.09
2022-12-14T09:37:07.958Z,97640.56
2022-12-14T09:39:38.138Z,97635.56
2022-12-14T09:42:23.333Z,97635.16
2022-12-14T09:45:01.957Z,97627.88
2022-12-14T09:47:37.592Z,97630.31
2022-12-14T09:50:08.444Z,97625.50
2022-12-14T09:52:40.926Z,97635.81
2022-12-14T09:55:21.911Z,97620.75
2022-12-14T09:57:55.623Z,97616.22
2022-12-14T10:00:26.478Z,97622.81
2022-12-14T10:03:07.109Z,97621.50
2022-12-14T10:05:53.332Z,97628.50
2022-12-14T10:08:32.556Z,97612.00
2022-12-14T10:11:08.825Z,97608.19
2022-12-14T10:13:48.682Z,97597.63
2022-12-14T10:16:26.977Z,97604.50
2022-12-14T10:19:14.695Z,97601.44
2022-12-14T10:21:50.386Z,97594.72
2022-12-14T10:24:24.134Z,97593.88
2022-12-14T10:26:55.838Z,97591.59
2022-12-14T10:29:32.737Z,97594.56
2022-12-14T10:32:13.065Z,97579.66
2022-12-14T10:34:44.428Z,97576.56
2022-12-14T10:37:26.745Z,97584.84
2022-12-14T10:40:29.313Z,97569.38
2022-12-14T10:43:17.807Z,97574.91
2022-12-14T10:45:52.510Z,97571.34
2022-12-14T10:48:37.380Z,97556.22
2022-12-14T10:51:09.766Z,97552.00
2022-12-14T10:53:46.718Z,97544.69
2022-12-14T10:56:22.072Z,97542.44
2022-12-14T10:59:32.351Z,97543.78
2022-12-14T11:02:14.127Z,97548.28
2022-12-14T11:04:50.836Z,97544.44
2022-12-14T11:07:22.502Z,97538.75
2022-12-14T11:09:51.238Z,97540.34
2022-12-14T11:12:24.265Z,97537.41
2022-12-14T11:14:56.642Z,97535.88
2022-12-14T11:17:39.837Z,97527.28
2022-12-14T11:20:21.000Z,97520.47
2022-12-14T11:22:52.196Z,97506.34
2022-12-14T11:25:30.702Z,97504.06
2022-12-14T11:28:01.418Z,97508.41
2022-12-14T11:30:30.846Z,97508.41
2022-12-14T11:33:01.035Z,97505.19
2022-12-14T11:35:29.324Z,97509.38
2022-12-14T11:38:02.561Z,97510.19
2022-12-14T11:40:31.766Z,97499.13
2022-12-14T11:43:30.559Z,97493.25
2022-12-14T11:46:00.188Z,97493.03
2022-12-14T11:48:31.221Z,97495.34
2022-12-14T11:51:12.105Z,97503.53
2022-12-14T11:53:41.413Z,97492.41
2022-12-14T11:56:17.874Z,97489.81
2022-12-14T11:58:55.508Z,97494.78
2022-12-14T12:01:27.933Z,97482.69
2022-12-14T12:04:00.753Z,97495.53
2022-12-14T12:06:31.238Z,97499.16
2022-12-14T12:09:02.344Z,97499.44
2022-12-14T12:11:32.987Z,97508.25
2022-12-14T12:14:04.902Z,97503.81
2022-12-14T12:16:35.705Z,97500.81
2022-12-14T12:19:12.514Z,97497.91
2022-12-14T12:21:47.224Z,97492.09
2022-12-14T12:24:20.589Z,97494.31
2022-12-14T12:26:52.564Z,97486.34
2022-12-14T12:29:27.333Z,97479.53
2022-12-14T12:32:00.014Z,97490.09
2022-12-14T12:34:34.900Z,97485.97
2022-12-14T12:37:27.078Z,97490.41
2022-12-14T12:40:00.772Z,97494.44
2022-12-14T12:42:42.419Z,97486.59
2022-12-14T12:45:18.341Z,97489.84
2022-12-14T12:47:52.842Z,97491.81
2022-12-14T12:50:28.804Z,97487.84
2022-12-14T12:53:03.729Z,97482.88
2022-12-14T12:55:35.033Z,97491.34
2022-12-14T12:58:05.117Z,97491.72
2022-12-14T13:00:35.944Z,97487.50
2022-12-14T13:03:11.497Z,97489.75
2022-12-14T13:05:46.591Z,97489.69
2022-12-14T13:08:24.013Z,97471.06
2022-12-14T13:13:50.562Z,97468.22
2022-12-14T13:16:27.004Z,97469.34
2022-12-14T13:19:18.997Z,97474.63
2022-12-14T13:22:03.325Z,97477.22
2022-12-14T13:24:33.940Z,97475.13
2022-12-14T13:27:21.656Z,97487.19
2022-12-14T13:30:03.771Z,97486.59
2022-12-14T13:32:49.151Z,97487.75
2022-12-14T13:35:47.311Z,97495.03
2022-12-14T13:38:58.494Z,97497.53
2022-12-14T13:41:34.289Z,97486.91
2022-12-14T13:44:38.669Z,97499.41
2022-12-14T13:47:18.754Z,97490.66
2022-12-14T13:50:33.801Z,97492.28
2022-12-14T13:52:47.030Z,97492.34
2022-12-14T13:55:32.212Z,97502.59
2022-12-14T13:58:21.004Z,97491.84
2022-12-14T14:01:07.502Z,97493.84
2022-12-14T14:03:59.683Z,97491.31
2022-12-14T14:06:39.274Z,97481.47
2022-12-14T14:09:48.121Z,97476.13
2022-12-14T14:12:45.138Z,97491.94
2022-12-14T14:16:04.045Z,97491.03
2022-12-14T14:18:35.331Z,97499.69
2022-12-14T14:21:38.929Z,97516.69
2022-12-14T14:24:22.478Z,97526.03
2022-12-14T14:27:02.710Z,97519.94
2022-12-14T14:29:33.922Z,97514.22
2022-12-14T14:32:04.066Z,97507.06
2022-12-14T14:34:41.567Z,97513.94
2022-12-14T14:37:24.450Z,97530.91
2022-12-14T14:40:13.323Z,97538.09
2022-12-14T14:42:51.797Z,97535.06
2022-12-14T14:45:35.096Z,97536.50
2022-12-14T14:48:10.309Z,97538.06
2022-12-14T14:50:41.158Z,97536.84
2022-12-14T14:53:29.231Z,97541.09
2022-12-14T14:56:03.625Z,97547.78
2022-12-14T14:58:35.624Z,97548.19
2022-12-14T15:01:25.540Z,97558.78
2022-12-14T15:04:00.915Z,97567.81
2022-12-14T15:06:32.851Z,97570.09
2022-12-14T15:09:06.891Z,97564.25
2022-12-14T15:11:45.038Z,97566.53
2022-12-14T15:14:26.685Z,97567.50
2022-12-14T15:16:56.465Z,97573.00
2022-12-14T15:19:26.659Z,97572.44
2022-12-14T15:21:59.270Z,97580.41
2022-12-14T15:24:28.883Z,97588.97
2022-12-14T15:26:57.362Z,97584.97
2022-12-14T15:29:29.561Z,97595.03
2022-12-14T15:32:02.378Z,97595.19
2022-12-14T15:34:30.948Z,97597.41
2022-12-14T15:36:59.143Z,97603.69
2022-12-14T15:39:38.509Z,97608.75
2022-12-14T15:42:11.748Z,97607.97
2022-12-14T15:44:44.083Z,97613.97
2022-12-14T15:47:28.646Z,97609.09
2022-12-14T15:50:16.327Z,97615.38
2022-12-14T15:53:18.664Z,97612.94
2022-12-14T15:56:01.030Z,97615.53
2022-12-14T15:58:34.030Z,97613.63
2022-12-14T16:01:11.392Z,97624.41
2022-12-14T16:03:48.037Z,97622.84
2022-12-14T16:06:18.282Z,97628.50
2022-12-14T16:08:59.317Z,97638.91
2022-12-14T16:11:33.605Z,97649.59
2022-12-14T16:14:12.587Z,97642.97
2022-12-14T16:16:40.921Z,97643.91
2022-12-14T16:19:26.590Z,97649.81
2022-12-14T16:22:12.731Z,97643.53
2022-12-14T16:24:58.576Z,97643.78
2022-12-14T16:27:28.509Z,97656.44
2022-12-14T16:30:23.385Z,97654.94
2022-12-14T16:32:54.372Z,97665.47
2022-12-14T16:35:29.080Z,97660.41
2022-12-14T16:38:07.251Z,97656.00
2022-12-14T16:40:40.878Z,97656.59
2022-12-14T16:43:26.491Z,97662.38
2022-12-14T16:46:16.199Z,97657.75
2022-12-14T16:49:10.847Z,97662.81
2022-12-14T16:52:06.251Z,97667.63
2022-12-14T16:54:33.141Z,97670.13
2022-12-14T16:57:04.553Z,97671.88
2022-12-14T16:59:41.202Z,97680.81
2022-12-14T17:02:30.143Z,97680.81
2022-12-14T17:05:00.374Z,97678.50
2022-12-14T17:07:44.938Z,97685.06
2022-12-14T17:10:18.586Z,97689.22
2022-12-14T17:12:48.458Z,97691.94
2022-12-14T17:15:18.605Z,97699.56
2022-12-14T17:17:49.437Z,97700.47
2022-12-14T17:20:24.298Z,97706.28
2022-12-14T17:22:55.137Z,97711.63
2022-12-14T17:25:29.181Z,97716.44
2022-12-14T17:27:57.968Z,97721.41
2022-12-14T17:30:26.812Z,97726.97
2022-12-14T17:32:56.249Z,97718.91
2022-12-14T17:35:26.976Z,97718.91
2022-12-14T17:37:57.393Z,97719.81
2022-12-14T17:40:26.302Z,97726.81
2022-12-14T17:42:58.596Z,97728.28
2022-12-14T17:45:29.581Z,97734.38
2022-12-14T17:47:58.833Z,97727.00
2022-12-14T17:50:28.242Z,97727.47
2022-12-14T17:52:57.861Z,97739.81
2022-12-14T17:55:28.269Z,97737.31
2022-12-14T17:58:00.431Z,97745.13
2022-12-14T18:00:50.771Z,97738.09
2022-12-14T18:03:20.807Z,97742.97
2022-12-14T18:05:50.607Z,97739.78
2022-12-14T18:08:21.304Z,97732.03
2022-12-14T18:10:52.622Z,97735.13
2022-12-14T18:13:30.032Z,97734.34
2022-12-14T18:16:00.705Z,97734.91
2022-12-14T18:18:29.832Z,97735.94
2022-12-14T18:21:00.833Z,97747.06
2022-12-14T18:23:32.056Z,97747.84
2022-12-14T18:26:02.803Z,97756.47
2022-12-14T18:28:31.472Z,97758.81
2022-12-14T18:31:05.170Z,97757.50
2022-12-14T18:33:35.367Z,97764.88
2022-12-14T18:36:03.947Z,97772.31
2022-12-14T18:38:33.728Z,97774.56
2022-12-14T18:41:03.410Z,97775.38
2022-12-14T18:43:32.443Z,97777.56
2022-12-14T18:46:01.542Z,97782.84
2022-12-14T18:48:29.991Z,97777.44
2022-12-14T18:51:00.050Z,97780.72
2022-12-14T18:53:29.732Z,97784.13
2022-12-14T18:56:00.195Z,97776.03
2022-12-14T18:58:30.822Z,97780.88
2022-12-14T19:01:02.019Z,97781.94
2022-12-14T19:03:33.718Z,97785.59
2022-12-14T19:06:42.291Z,97787.19
2022-12-14T19:08:57.210Z,97785.50
2022-12-14T19:11:35.010Z,97783.56
2022-12-14T19:14:04.710Z,97793.94
2022-12-14T19:16:33.318Z,97796.84
2022-12-14T19:19:01.973Z,97803.78
2022-12-14T19:21:31.687Z,97796.66
2022-12-14T19:24:00.541Z,97799.25
2022-12-14T19:26:32.675Z,97805.16
2022-12-14T19:29:02.514Z,97799.03
2022-12-14T19:31:32.409Z,97800.91
2022-12-14T19:34:00.809Z,97806.63
2022-12-14T19:36:29.297Z,97807.69
2022-12-14T19:39:00.233Z,97808.72
2022-12-14T19:41:28.549Z,97810.09
2022-12-14T19:43:59.017Z,97808.88
2022-12-14T19:46:27.687Z,97812.44
2022-12-14T19:48:59.442Z,97811.66
2022-12-14T19:51:27.833Z,97807.38
2022-12-14T19:53:56.715Z,97811.03
2022-12-14T19:56:26.643Z,97814.72
2022-12-14T19:58:57.839Z,97820.16
2022-12-14T20:01:34.401Z,97824.00
2022-12-14T20:04:03.578Z,97830.72
2022-12-14T20:06:32.182Z,97831.16
2022-12-14T20:09:02.183Z,97839.75
2022-12-14T20:11:30.710Z,97849.72
2022-12-14T20:14:03.148Z,97839.72
2022-12-14T20:16:33.343Z,97853.53
2022-12-14T20:19:01.528Z,97852.50
2022-12-14T20:21:29.971Z,97856.03
2022-12-14T20:23:59.212Z,97858.50
2022-12-14T20:26:28.758Z,97859.31
2022-12-14T20:29:01.109Z,97863.34
2022-12-14T20:31:29.746Z,97872.31
2022-12-14T20:34:01.112Z,97868.09
2022-12-14T20:36:33.259Z,97871.75
2022-12-14T20:39:03.550Z,97877.78
2022-12-14T20:41:33.313Z,97885.91
2022-12-14T20:44:03.354Z,97878.47
2022-12-14T20:46:33.873Z,97884.50
2022-12-14T20:49:06.423Z,97883.44
2022-12-14T20:51:36.474Z,97880.28
2022-12-14T20:54:06.165Z,97878.47
2022-12-14T20:56:38.998Z,97882.91
2022-12-14T20:59:07.779Z,97878.69
2022-12-14T21:01:41.038Z,97877.84
2022-12-14T21:04:11.482Z,97879.78
2022-12-14T21:06:41.872Z,97888.16
2022-12-14T21:09:12.006Z,97888.22
2022-12-14T21:12:03.304Z,97886.66
2022-12-14T21:14:34.079Z,97887.69
2022-12-14T21:17:04.156Z,97896.41
2022-12-14T21:19:36.123Z,97898.84
2022-12-14T21:22:04.514Z,97897.22
2022-12-14T21:27:24.073Z,97897.31
2022-12-14T21:29:52.585Z,97891.53
2022-12-14T21:32:22.240Z,97889.72
2022-12-14T21:34:52.927Z,97881.97
2022-12-14T21:37:22.203Z,97898.44
2022-12-14T21:39:54.247Z,97901.75
2022-12-14T21:42:22.648Z,97900.91
2022-12-14T21:44:53.962Z,97906.97
2022-12-14T21:47:24.563Z,97902.56
2022-12-14T21:49:54.574Z,97902.41
2022-12-14T21:52:24.584Z,97894.81
2022-12-14T21:54:53.256Z,97905.09
2022-12-14T21:57:40.471Z,97904.91
2022-12-14T22:00:12.395Z,97903.69
2022-12-14T22:02:41.925Z,97916.94
2022-12-14T22:05:13.758Z,97907.69
2022-12-14T22:07:42.464Z,97905.31
2022-12-14T22:10:12.486Z,97906.72
2022-12-14T22:12:42.070Z,97908.66
2022-12-14T22:15:14.841Z,97913.78
2022-12-14T22:17:44.732Z,97918.09
2022-12-14T22:20:15.847Z,97917.56
2022-12-14T22:22:45.090Z,97915.09
2022-12-14T22:25:13.498Z,97921.22
2022-12-14T22:27:41.654Z,97924.84
2022-12-14T22:30:13.143Z,97924.88
2022-12-14T22:32:42.458Z,97918.63
2022-12-14T22:35:11.085Z,97920.16
2022-12-14T22:37:42.044Z,97921.84
2022-12-14T22:40:12.087Z,97918.66
2022-12-14T22:42:43.937Z,97916.75
2022-12-14T22:45:14.599Z,97916.66
2022-12-14T22:47:42.818Z,97920.22
2022-12-14T22:50:11.924Z,97911.34
2022-12-14T22:52:42.060Z,97915.81
2022-12-14T22:55:11.625Z,97917.22
2022-12-14T22:57:44.403Z,97923.16
2022-12-14T23:00:17.082Z,97928.00
2022-12-14T23:02:48.770Z,97927.38
2022-12-14T23:05:20.219Z,97929.81
2022-12-14T23:07:50.326Z,97927.38
2022-12-14T23:10:35.701Z,97932.97
2022-12-14T23:13:21.066Z,97931.09
2022-12-14T23:16:06.388Z,97924.84
2022-12-14T23:18:51.980Z,97928.72
2022-12-14T23:21:40.087Z,97928.88
2022-12-14T23:24:27.555Z,97933.16
2022-12-14T23:27:13.446Z,97933.09
2022-12-14T23:29:59.215Z,97934.56
2022-12-14T23:32:44.614Z,97949.59
2022-12-14T23:35:30.721Z,97955.75
2022-12-14T23:38:22.174Z,97954.13
2022-12-14T23:41:17.666Z,97947.28
2022-12-14T23:44:05.507Z,97948.22
2022-12-14T23:46:51.799Z,97949.06
2022-12-14T23:49:37.741Z,97955.88
2022-12-14T23:52:23.668Z,97958.44
2022-12-14T23:55:09.433Z,97961.59
2022-12-14T23:57:56.815Z,97969.41
